Staffordsville, Virginia
Current Conditions -  °F | °C
As of 5:15 AM on Wednesday 26 Nov 2014 (Local Time) from KPSK Reporting Station
Moderate Snow Moderate Snow  
Wind Chill: 38°   Ceiling: 1400
Heat Index: 38°   Visibility: 2.5mi
Dew Point: 38°   Wind: 0mph
Humidity: 97%   Direction: NA
Pressure: 29.99"   Gusts: NA
Location:  37.24°N, 80.72°W
Report Text: KPSK 261015Z AUTO 00000KT 2 1/2SM SN SCT008 BKN014 OVC022 04/03 A2999 RMK AO2 VIS 2V3 P0003 T00360032
Loading
Personal Weather Stations






























Interactive Weather Map New forecast layout! Learn more

10-Day Weather Forecast

Advertisements
Track Severe Weather on mobile